Time;durP1;ratioP1;P1;durP2;ratioP2;P2;SDS_P1;SDS_P2;PMS_P1;PMS_P2;Temp;Humidity;BMP_temperature;BMP_pressure;BME280_temperature;BME280_humidity;BME280_pressure;Samples;Min_cycle;Max_cycle;Signal;HPM_P1;HPM_P2
2022/09/24 00:04:51;;;;;;;21.20;12.60;;;;;;;10.21;62.40;99149.09;226166;1236;139761;-62
2022/09/24 00:09:54;;;;;;;20.50;12.70;;;;;;;10.21;62.13;99147.33;225972;1241;140564;-61
2022/09/24 00:14:57;;;;;;;21.60;12.40;;;;;;;10.23;62.24;99144.39;227222;1235;140310;-64
2022/09/24 00:20:00;;;;;;;29.00;13.20;;;;;;;10.21;62.13;99140.23;226596;1234;139177;-66
2022/09/24 00:30:24;;;;;;;22.20;12.80;;;;;;;10.12;61.93;99135.79;226068;1243;140294;-66
2022/09/24 00:35:30;;;;;;;22.30;12.80;;;;;;;10.06;61.81;99133.71;225988;1243;139549;-66
2022/09/24 00:40:35;;;;;;;17.20;11.80;;;;;;;9.97;62.10;99133.48;226134;1241;139342;-65
2022/09/24 00:45:41;;;;;;;21.60;13.40;;;;;;;9.85;61.99;99134.75;226101;1235;139079;-66
2022/09/24 00:50:44;;;;;;;20.00;12.70;;;;;;;9.77;61.87;99135.02;226130;1243;139414;-65
2022/09/24 00:55:53;;;;;;;19.60;12.70;;;;;;;9.74;62.01;99130.60;226168;1237;139241;-62
2022/09/24 01:01:03;;;;;;;18.20;12.80;;;;;;;9.69;62.25;99124.80;227440;1227;140598;-63
2022/09/24 01:06:08;;;;;;;20.80;13.20;;;;;;;9.66;62.34;99121.11;226445;1249;139128;-63
2022/09/24 01:11:39;;;;;;;21.80;12.80;;;;;;;9.64;62.40;99120.51;226190;1250;139962;-62
2022/09/24 01:16:58;;;;;;;20.90;12.50;;;;;;;9.68;62.36;99113.20;226248;1245;139770;-62
2022/09/24 01:22:29;;;;;;;20.70;12.00;;;;;;;9.71;62.36;99103.98;227333;1242;139871;-62
2022/09/24 01:27:59;;;;;;;20.90;12.20;;;;;;;9.69;62.48;99101.27;226371;1244;139143;-63
2022/09/24 01:33:07;;;;;;;28.10;12.00;;;;;;;9.62;62.11;99097.59;227394;1227;138887;-63
2022/09/24 01:38:20;;;;;;;16.60;11.50;;;;;;;9.54;62.14;99092.75;226104;1251;139485;-62
2022/09/24 01:43:25;;;;;;;21.30;11.60;;;;;;;9.47;62.09;99091.36;226070;1244;140456;-62
2022/09/24 01:48:29;;;;;;;21.50;11.60;;;;;;;9.42;62.05;99093.63;226301;1241;139370;-63
2022/09/24 01:53:43;;;;;;;20.70;11.80;;;;;;;9.35;62.02;99093.83;226363;1236;139250;-63
2022/09/24 01:58:48;;;;;;;;;;;;;;;9.24;62.06;99095.85;227573;1232;139194;-62
2022/09/24 02:03:56;;;;;;;19.90;11.80;;;;;;;9.15;62.25;99097.56;226365;1243;125083;-63
2022/09/24 02:08:59;;;;;;;19.60;12.30;;;;;;;9.12;62.24;99095.97;227372;1235;139316;-63
2022/09/24 02:14:08;;;;;;;19.20;12.40;;;;;;;9.08;62.21;99097.46;227238;1229;139099;-63
2022/09/24 02:19:16;;;;;;;23.10;12.00;;;;;;;9.05;62.32;99102.55;226212;1246;139118;-63
2022/09/24 02:24:28;;;;;;;19.10;11.30;;;;;;;9.10;62.26;99105.50;226228;1235;140465;-62
2022/09/24 02:29:31;;;;;;;21.50;12.10;;;;;;;9.10;62.31;99100.83;225953;1235;139841;-63
2022/09/24 02:34:46;;;;;;;21.40;11.40;;;;;;;9.14;62.61;99094.61;226153;1243;140452;-64
2022/09/24 02:39:49;;;;;;;19.90;11.30;;;;;;;9.12;62.26;99095.13;226201;1243;140015;-63
2022/09/24 02:44:56;;;;;;;20.30;11.90;;;;;;;9.09;62.41;99094.21;226147;1243;139281;-64
2022/09/24 02:49:59;;;;;;;21.30;12.30;;;;;;;9.09;62.39;99089.07;226084;1240;138908;-64
2022/09/24 02:55:03;;;;;;;24.40;11.90;;;;;;;9.05;62.28;99082.58;227213;1234;139558;-63
2022/09/24 03:00:07;;;;;;;28.30;12.60;;;;;;;8.98;62.28;99080.26;226001;1242;139804;-63
2022/09/24 03:05:11;;;;;;;23.90;11.80;;;;;;;8.93;62.43;99072.08;226198;1243;140089;-63
2022/09/24 03:10:14;;;;;;;22.60;12.00;;;;;;;8.88;62.36;99069.14;227446;1234;139465;-63
2022/09/24 03:15:17;;;;;;;23.40;12.00;;;;;;;8.85;62.28;99068.63;226179;1243;139806;-63
2022/09/24 03:20:20;;;;;;;21.70;11.40;;;;;;;8.75;62.14;99071.45;226241;1241;138678;-62
2022/09/24 03:25:24;;;;;;;21.40;11.40;;;;;;;8.76;62.57;99073.19;226178;1243;140138;-62
2022/09/24 03:35:48;;;;;;;16.70;11.10;;;;;;;8.85;62.43;99057.88;226235;1244;139455;-61
2022/09/24 03:40:51;;;;;;;18.30;11.30;;;;;;;8.82;62.40;99055.00;226123;1248;140002;-61
2022/09/24 03:45:54;;;;;;;20.20;11.60;;;;;;;8.77;62.18;99055.98;226107;1243;139917;-61
2022/09/24 03:51:12;;;;;;;25.50;10.70;;;;;;;8.69;62.26;99056.21;226289;1244;138647;-61
2022/09/24 03:56:15;;;;;;;17.50;11.50;;;;;;;8.62;62.17;99059.04;227414;1227;138937;-61
2022/09/24 04:01:20;;;;;;;16.40;11.00;;;;;;;8.60;62.50;99062.36;226007;1242;139189;-66
2022/09/24 04:06:25;;;;;;;17.80;11.30;;;;;;;8.56;62.34;99057.97;227161;1235;139163;-67
2022/09/24 04:11:28;;;;;;;21.60;11.60;;;;;;;8.50;62.39;99063.41;226356;1240;138962;-66
2022/09/24 04:16:31;;;;;;;20.70;11.90;;;;;;;8.46;62.50;99064.14;226383;1242;138808;-63
2022/09/24 04:21:34;;;;;;;18.20;11.00;;;;;;;8.45;62.58;99063.88;226051;1240;138844;-64
2022/09/24 04:26:37;;;;;;;17.80;10.80;;;;;;;8.47;62.46;99066.06;226012;1237;139641;-66
2022/09/24 04:31:40;;;;;;;19.20;11.50;;;;;;;8.52;62.86;99059.58;226209;1244;139702;-66
2022/09/24 04:36:43;;;;;;;18.60;11.20;;;;;;;8.63;62.95;99057.60;226215;1241;139268;-66
2022/09/24 04:41:46;;;;;;;17.40;10.80;;;;;;;8.67;62.75;99055.42;226096;1243;139786;-67
2022/09/24 04:46:49;;;;;;;19.40;11.90;;;;;;;8.70;62.92;99056.19;226128;1244;139240;-66
2022/09/24 04:51:52;;;;;;;17.60;11.30;;;;;;;8.70;62.84;99054.36;226277;1244;139529;-66
2022/09/24 04:56:55;;;;;;;20.10;11.60;;;;;;;8.71;63.01;99056.64;226282;1238;138980;-66
2022/09/24 05:01:58;;;;;;;19.80;11.30;;;;;;;8.72;63.07;99053.23;226124;1244;139594;-67
2022/09/24 05:07:01;;;;;;;20.20;12.00;;;;;;;8.71;63.13;99053.12;226091;1236;140305;-65
2022/09/24 05:12:04;;;;;;;20.70;11.00;;;;;;;8.72;63.23;99052.52;227323;1229;139380;-64
2022/09/24 05:17:07;;;;;;;21.70;10.90;;;;;;;8.71;63.28;99046.39;226357;1240;139398;-64
2022/09/24 05:22:10;;;;;;;17.10;10.60;;;;;;;8.78;63.36;99051.67;226224;1237;140092;-66
2022/09/24 05:27:13;;;;;;;16.20;11.00;;;;;;;8.85;63.60;99040.47;226142;1243;138920;-63
2022/09/24 05:32:18;;;;;;;21.70;11.00;;;;;;;8.94;63.74;99035.23;226150;1245;139195;-69
2022/09/24 05:37:21;;;;;;;19.50;11.10;;;;;;;8.99;63.58;99032.08;227212;1236;139464;-71
2022/09/24 05:42:24;;;;;;;18.80;11.00;;;;;;;9.01;63.36;99036.94;226142;1244;139868;-72
2022/09/24 05:47:27;;;;;;;16.10;11.20;;;;;;;9.06;63.47;99040.60;226283;1240;138769;-74
2022/09/24 05:52:30;;;;;;;19.00;11.90;;;;;;;9.09;63.58;99038.08;226209;1240;225402;-65
2022/09/24 05:57:33;;;;;;;18.40;11.30;;;;;;;9.12;63.63;99044.48;226215;1250;139508;-63
2022/09/24 06:02:36;;;;;;;20.10;11.60;;;;;;;9.17;63.80;99043.63;226209;1242;140113;-65
2022/09/24 06:07:39;;;;;;;17.20;10.90;;;;;;;9.26;63.98;99048.83;226179;1251;140014;-65
2022/09/24 06:12:42;;;;;;;17.80;11.30;;;;;;;9.36;64.18;99042.42;227392;1241;139191;-63
2022/09/24 06:17:45;;;;;;;17.20;11.80;;;;;;;9.50;64.17;99042.80;226147;1243;139907;-64
2022/09/24 06:22:49;;;;;;;21.40;12.50;;;;;;;9.71;64.37;99043.59;226282;1240;139420;-64
2022/09/24 06:27:59;;;;;;;15.80;11.50;;;;;;;9.92;64.70;99043.05;227442;1241;139072;-64
2022/09/24 06:33:12;;;;;;;21.60;12.40;;;;;;;10.13;64.86;99052.23;226088;1243;139137;-63
2022/09/24 06:38:17;;;;;;;18.50;12.40;;;;;;;10.35;64.54;99050.96;226165;1240;139333;-64
2022/09/24 06:43:20;;;;;;;16.70;12.30;;;;;;;10.56;64.53;99048.79;227409;1229;139375;-63
2022/09/24 06:48:23;;;;;;;17.60;12.00;;;;;;;10.75;64.68;99054.37;226220;1240;140478;-65
2022/09/24 06:53:26;;;;;;;23.50;12.20;;;;;;;10.93;64.33;99051.45;227348;1233;139448;-63
2022/09/24 06:58:29;;;;;;;18.20;11.30;;;;;;;11.08;64.18;99054.39;226036;1251;139343;-63
2022/09/24 07:03:33;;;;;;;20.40;12.80;;;;;;;11.25;64.42;99056.32;226058;1245;138976;-63
2022/09/24 07:08:37;;;;;;;14.70;10.70;;;;;;;11.42;63.90;99057.71;227381;1237;139278;-63
2022/09/24 07:13:39;;;;;;;15.10;10.70;;;;;;;11.53;63.61;99053.98;226138;1244;139421;-63
2022/09/24 07:18:42;;;;;;;18.10;12.10;;;;;;;11.64;63.27;99054.84;226062;1250;140046;-63
2022/09/24 07:23:46;;;;;;;18.60;11.90;;;;;;;11.75;63.71;99058.89;227229;1234;138906;-63
2022/09/24 07:28:49;;;;;;;16.90;11.50;;;;;;;11.91;63.21;99059.45;227525;1242;140597;-62
2022/09/24 07:33:52;;;;;;;18.00;12.00;;;;;;;12.10;63.75;99068.52;227188;1241;139422;-63
2022/09/24 07:38:55;;;;;;;20.60;12.20;;;;;;;12.28;63.51;99067.98;226170;1240;139368;-66
2022/09/24 07:43:58;;;;;;;19.40;12.90;;;;;;;12.46;63.53;99069.92;225987;1237;139134;-63
2022/09/24 07:49:01;;;;;;;17.30;11.20;;;;;;;12.64;63.48;99065.30;226795;1238;139618;-67
2022/09/24 07:54:04;;;;;;;17.60;12.00;;;;;;;12.83;63.10;99066.30;226119;1245;139368;-65
2022/09/24 07:59:10;;;;;;;18.10;11.80;;;;;;;12.98;62.88;99068.02;226211;1243;140381;-66
2022/09/24 08:04:12;;;;;;;20.20;12.20;;;;;;;13.13;62.71;99067.70;226115;1230;139719;-65
2022/09/24 08:09:16;;;;;;;23.90;12.70;;;;;;;13.23;62.47;99062.33;226090;1241;138868;-65
2022/09/24 08:14:19;;;;;;;20.60;12.80;;;;;;;13.36;62.35;99062.50;226987;1233;139612;-66
2022/09/24 08:19:22;;;;;;;22.00;12.70;;;;;;;13.53;62.30;99063.96;226060;1240;139195;-66
2022/09/24 08:24:25;;;;;;;17.70;11.60;;;;;;;13.66;62.00;99066.14;226090;1242;139986;-61
2022/09/24 08:29:27;;;;;;;16.00;10.20;;;;;;;13.77;61.25;99065.72;227238;1233;139881;-66
2022/09/24 08:34:37;;;;;;;17.80;10.70;;;;;;;13.89;61.11;99060.13;226072;1251;139358;-67
2022/09/24 08:39:40;;;;;;;14.00;10.30;;;;;;;14.03;60.65;99057.83;227244;1244;139400;-67
2022/09/24 08:50:16;;;;;;;14.60;7.60;;;;;;;14.29;59.86;99063.73;226105;1237;140263;-64
2022/09/24 08:55:24;;;;;;;11.60;8.20;;;;;;;14.41;59.44;99067.23;226084;1235;140358;-65
2022/09/24 09:00:35;;;;;;;12.60;7.10;;;;;;;14.54;58.77;99063.98;225972;1244;140054;-66
2022/09/24 09:05:46;;;;;;;12.00;8.20;;;;;;;14.66;58.21;99053.73;227111;1244;140041;-66
2022/09/24 09:10:57;;;;;;;14.00;8.20;;;;;;;14.80;58.20;99051.53;226202;1244;139238;-65
2022/09/24 09:16:05;;;;;;;13.80;7.50;;;;;;;14.91;57.86;99048.19;226220;1233;139043;-66
2022/09/24 09:21:23;;;;;;;8.80;6.30;;;;;;;14.97;57.46;99044.13;226378;1245;140020;-65
2022/09/24 09:26:26;;;;;;;8.10;6.00;;;;;;;15.06;57.05;99035.35;226241;1228;139302;-65
2022/09/24 09:31:38;;;;;;;8.70;6.50;;;;;;;15.16;56.60;99031.18;226207;1238;139569;-66
2022/09/24 09:37:12;;;;;;;8.00;6.60;;;;;;;15.27;56.25;99032.22;226157;1248;139009;-64
2022/09/24 09:42:35;;;;;;;9.70;6.00;;;;;;;15.45;56.12;99025.70;227167;1245;139718;-65
2022/09/24 09:47:49;;;;;;;8.60;5.80;;;;;;;15.67;56.11;99020.77;226140;1241;140007;-65
2022/09/24 09:52:53;;;;;;;8.40;5.70;;;;;;;15.85;55.85;99015.67;226391;1242;140818;-65
2022/09/24 09:58:14;;;;;;;7.50;5.20;;;;;;;15.98;55.15;99012.39;226198;1243;139061;-64
2022/09/24 10:03:24;;;;;;;5.10;4.10;;;;;;;16.13;55.07;99011.30;226405;1252;139469;-64
2022/09/24 10:08:28;;;;;;;7.60;5.10;;;;;;;16.24;54.19;99001.92;226046;1245;138965;-63
2022/09/24 10:13:32;;;;;;;6.30;4.10;;;;;;;16.30;53.79;98993.70;226951;1235;138615;-64
2022/09/24 10:18:42;;;;;;;6.60;4.60;;;;;;;16.42;54.04;98987.50;226154;1241;139923;-63
2022/09/24 10:23:49;;;;;;;9.00;5.20;;;;;;;16.56;53.83;98986.46;226380;1241;138829;-65
2022/09/24 10:34:27;;;;;;;10.00;5.20;;;;;;;16.93;55.47;98978.05;226069;1244;139071;-62
2022/09/24 10:39:30;;;;;;;7.90;4.40;;;;;;;17.61;58.35;98975.20;225878;1244;139064;-63
2022/09/24 10:44:35;;;;;;;5.10;4.30;;;;;;;18.18;57.58;98973.76;225891;1244;138572;-63
2022/09/24 10:50:00;;;;;;;5.90;4.80;;;;;;;18.48;56.63;98976.05;225939;1244;139039;-64
2022/09/24 10:55:13;;;;;;;6.70;4.90;;;;;;;18.56;55.42;98969.94;227012;1234;139138;-64
2022/09/24 11:00:27;;;;;;;8.50;4.60;;;;;;;18.81;56.06;98966.48;225915;1241;138912;-64
2022/09/24 11:05:55;;;;;;;5.90;4.40;;;;;;;18.93;54.72;98967.61;226142;1245;139039;-64
2022/09/24 11:11:08;;;;;;;14.60;6.10;;;;;;;18.81;53.45;98966.44;226451;1241;139199;-63
2022/09/24 11:16:37;;;;;;;8.90;5.10;;;;;;;18.78;53.78;98965.44;227303;1247;139739;-66
2022/09/24 11:22:37;;;;;;;17.00;5.60;;;;;;;18.61;52.30;98960.45;227381;1233;139192;-66
2022/09/24 11:28:00;;;;;;;10.60;4.20;;;;;;;18.87;54.81;98956.55;225318;1248;139339;-64
2022/09/24 11:33:25;;;;;;;4.30;3.60;;;;;;;19.06;53.89;98955.54;227100;1233;140039;-65
2022/09/24 11:39:03;;;;;;;5.80;3.40;;;;;;;18.99;52.83;98951.73;227252;1241;139053;-64
2022/09/24 11:44:27;;;;;;;4.90;3.70;;;;;;;19.00;52.76;98942.85;225796;1245;139092;-64
2022/09/24 11:50:09;;;;;;;6.60;3.60;;;;;;;18.81;51.76;98940.59;227331;1247;139599;-62
2022/09/24 11:55:20;;;;;;;4.60;3.30;;;;;;;18.55;51.03;98936.77;226581;1234;140152;-63
2022/09/24 12:00:31;;;;;;;3.60;2.40;;;;;;;18.36;50.54;98932.34;225985;1244;139342;-65
2022/09/24 12:05:38;;;;;;;5.00;3.40;;;;;;;18.25;50.76;98934.16;226462;1234;139223;-66
2022/09/24 12:10:50;;;;;;;4.40;2.50;;;;;;;18.44;52.33;98934.77;226385;1238;138997;-65
2022/09/24 12:16:02;;;;;;;3.80;2.30;;;;;;;18.69;52.46;98932.55;226397;1235;139045;-66
2022/09/24 12:21:11;;;;;;;8.20;3.20;;;;;;;18.87;52.29;98930.66;226231;1244;139293;-64
2022/09/24 12:26:16;;;;;;;4.80;2.70;;;;;;;19.20;52.31;98929.21;226127;1243;139677;-64
2022/09/24 12:37:10;;;;;;;3.10;2.40;;;;;;;19.35;50.70;98921.00;226380;1241;139015;-63
2022/09/24 12:42:16;;;;;;;3.30;2.10;;;;;;;19.36;50.08;98919.66;226194;1242;138943;-66
2022/09/24 12:47:24;;;;;;;2.60;1.90;;;;;;;19.39;49.41;98915.38;226192;1242;139179;-63
2022/09/24 12:52:35;;;;;;;2.60;2.00;;;;;;;19.49;49.11;98911.38;226354;1253;139147;-64
2022/09/24 12:57:41;;;;;;;2.60;2.20;;;;;;;19.56;48.96;98908.91;226453;1241;138882;-62
2022/09/24 13:02:46;;;;;;;5.50;2.50;;;;;;;19.66;49.31;98908.85;226043;1245;139558;-62
2022/09/24 13:08:23;;;;;;;4.50;2.10;;;;;;;19.95;49.35;98898.30;226136;1244;139046;-62
2022/09/24 13:13:29;;;;;;;3.00;1.80;;;;;;;20.00;47.94;98898.77;226491;1241;139895;-62
2022/09/24 13:18:34;;;;;;;2.40;2.10;;;;;;;19.84;47.15;98894.42;226447;1249;138684;-64
2022/09/24 13:23:48;;;;;;;3.90;1.90;;;;;;;19.79;47.43;98892.77;226227;1244;139448;-64
2022/09/24 13:29:00;;;;;;;2.80;1.80;;;;;;;19.77;47.58;98889.64;226123;1241;139373;-64
2022/09/24 13:34:09;;;;;;;2.70;1.60;;;;;;;19.88;47.66;98882.98;226251;1244;139407;-62
2022/09/24 13:39:33;;;;;;;4.20;1.50;;;;;;;20.00;47.28;98879.67;225972;1250;140141;-64
2022/09/24 13:44:42;;;;;;;3.50;1.90;;;;;;;20.01;47.20;98870.41;226124;1244;139157;-72
2022/09/24 13:49:49;;;;;;;3.10;1.70;;;;;;;19.96;46.35;98862.48;226142;1243;141113;-68
2022/09/24 13:54:55;;;;;;;2.00;1.40;;;;;;;19.79;46.11;98848.13;226576;1241;138652;-65
2022/09/24 14:00:15;;;;;;;5.30;1.80;;;;;;;19.76;46.89;98849.80;227421;1234;139881;-64
2022/09/24 14:05:18;;;;;;;5.80;1.90;;;;;;;19.83;47.20;98847.73;227439;1232;139452;-66
2022/09/24 14:10:23;;;;;;;3.50;2.20;;;;;;;19.88;46.71;98843.59;226353;1249;139896;-64
2022/09/24 14:15:26;;;;;;;2.00;1.40;;;;;;;19.86;46.47;98835.73;225938;1243;138736;-65
2022/09/24 14:20:34;;;;;;;28.10;2.90;;;;;;;19.78;46.27;98840.33;227072;1237;138979;-66
2022/09/24 14:25:38;;;;;;;3.40;1.80;;;;;;;19.63;45.73;98833.23;227355;1234;139099;-64
2022/09/24 14:30:53;;;;;;;3.60;1.80;;;;;;;19.59;47.10;98829.53;226396;1249;139196;-66
2022/09/24 14:35:58;;;;;;;;;;;;;;;19.75;47.88;98831.09;225964;1241;139155;-65
2022/09/24 14:41:23;;;;;;;3.40;1.50;;;;;;;19.62;45.66;98831.89;226186;1241;126028;-66
2022/09/24 14:46:47;;;;;;;2.50;1.60;;;;;;;19.40;44.66;98838.30;227256;1231;139105;-64
2022/09/24 14:51:54;;;;;;;3.40;2.00;;;;;;;19.18;44.36;98834.09;226350;1244;140109;-63
2022/09/24 14:57:09;;;;;;;4.70;2.50;;;;;;;18.97;44.44;98836.33;225949;1237;139156;-66
2022/09/24 15:02:18;;;;;;;;;;;;;;;18.80;44.85;98837.13;227354;1226;139051;-67
2022/09/24 15:07:28;;;;;;;4.60;3.00;;;;;;;18.63;44.84;98835.05;226425;1240;125264;-65
2022/09/24 15:12:35;;;;;;;3.60;2.50;;;;;;;18.50;45.01;98834.88;226316;1239;139795;-66
2022/09/24 15:17:38;;;;;;;4.20;2.30;;;;;;;18.39;44.96;98833.36;226093;1244;139509;-64
2022/09/24 15:22:41;;;;;;;6.10;2.80;;;;;;;18.20;45.18;98838.48;226061;1243;139148;-68
2022/09/24 15:27:44;;;;;;;8.40;3.30;;;;;;;18.06;45.52;98832.88;226509;1250;139416;-65
2022/09/24 15:32:48;;;;;;;6.40;3.10;;;;;;;17.96;45.57;98833.64;227393;1233;139135;-68
2022/09/24 15:37:51;;;;;;;4.80;2.90;;;;;;;17.83;45.91;98829.88;226234;1244;138685;-68
2022/09/24 15:42:54;;;;;;;6.10;2.40;;;;;;;17.73;46.35;98826.63;226048;1249;140301;-68
2022/09/24 15:47:57;;;;;;;3.90;2.20;;;;;;;17.66;46.56;98827.26;226181;1245;139153;-69
2022/09/24 15:53:01;;;;;;;3.90;2.10;;;;;;;17.59;46.58;98820.83;227444;1230;138957;-66
2022/09/24 15:58:11;;;;;;;3.30;2.10;;;;;;;17.54;46.87;98820.77;226164;1240;138702;-68
2022/09/24 16:03:29;;;;;;;3.60;1.90;;;;;;;17.41;46.68;98818.70;227246;1242;139478;-67
2022/09/24 16:08:31;;;;;;;4.60;2.00;;;;;;;17.24;46.86;98817.55;226465;1237;139796;-67
2022/09/24 16:13:35;;;;;;;4.80;2.80;;;;;;;17.16;47.12;98815.33;226321;1241;139117;-64
2022/09/24 16:18:39;;;;;;;3.60;2.40;;;;;;;17.05;47.40;98818.50;226265;1234;139975;-71
2022/09/24 16:23:42;;;;;;;4.00;2.40;;;;;;;16.95;47.66;98823.20;226607;1237;139531;-64
2022/09/24 16:28:46;;;;;;;8.90;2.60;;;;;;;16.82;48.03;98823.67;226103;1237;138958;-64
2022/09/24 16:33:49;;;;;;;4.50;2.30;;;;;;;16.66;48.14;98829.05;226237;1243;141364;-70
2022/09/24 16:38:52;;;;;;;4.30;2.40;;;;;;;16.51;48.15;98831.42;226121;1234;139906;-68
2022/09/24 16:43:55;;;;;;;6.00;3.10;;;;;;;16.38;48.70;98834.63;227407;1233;138442;-70
2022/09/24 16:48:58;;;;;;;7.70;3.30;;;;;;;16.30;49.20;98838.70;225795;1250;139284;-67
2022/09/24 16:54:01;;;;;;;5.70;3.00;;;;;;;16.27;49.42;98833.95;227081;1242;139306;-69
2022/09/24 16:59:04;;;;;;;8.70;3.70;;;;;;;16.21;49.71;98835.00;226395;1247;139245;-68
2022/09/24 17:04:08;;;;;;;6.30;3.80;;;;;;;16.11;50.11;98833.20;226365;1236;139209;-68
2022/09/24 17:14:36;;;;;;;9.50;4.50;;;;;;;15.90;50.81;98841.70;227203;1229;139543;-71
2022/09/24 17:19:39;;;;;;;8.20;4.10;;;;;;;15.78;51.15;98844.70;226309;1240;139474;-66
2022/09/24 17:24:42;;;;;;;7.00;4.40;;;;;;;15.67;51.44;98840.84;227390;1233;139490;-70
2022/09/24 17:29:46;;;;;;;6.40;4.50;;;;;;;15.54;51.65;98847.40;227408;1234;139659;-72
2022/09/24 17:34:49;;;;;;;9.30;5.10;;;;;;;15.42;52.01;98849.39;226117;1244;139170;-70
2022/09/24 17:39:52;;;;;;;14.90;6.00;;;;;;;15.30;52.28;98847.52;226139;1235;139343;-71
2022/09/24 17:44:55;;;;;;;12.40;7.90;;;;;;;15.20;52.62;98848.17;225996;1249;138829;-72
2022/09/24 17:49:58;;;;;;;11.90;7.00;;;;;;;15.13;53.02;98851.45;226072;1243;139452;-70
2022/09/24 17:55:07;;;;;;;11.00;6.70;;;;;;;15.08;53.43;98853.96;227300;1237;139390;-72
2022/09/24 18:00:10;;;;;;;9.60;6.40;;;;;;;15.19;55.25;98851.48;226280;1237;139656;-64
2022/09/24 18:05:13;;;;;;;14.20;8.00;;;;;;;15.77;55.32;98842.05;226237;1249;140361;-66
2022/09/24 18:10:19;;;;;;;12.40;7.20;;;;;;;15.66;54.17;98841.73;226103;1244;139304;-65
2022/09/24 18:15:21;;;;;;;14.90;7.60;;;;;;;15.44;53.97;98843.08;226205;1242;139802;-63
2022/09/24 18:20:25;;;;;;;13.30;7.80;;;;;;;15.25;54.11;98849.91;226126;1248;139190;-66
2022/09/24 18:25:28;;;;;;;12.50;8.30;;;;;;;15.09;54.48;98853.73;226106;1238;140906;-65
2022/09/24 18:30:31;;;;;;;15.10;8.30;;;;;;;14.97;54.64;98850.86;227371;1231;139300;-65
2022/09/24 18:35:34;;;;;;;12.30;8.70;;;;;;;14.85;54.98;98845.59;226490;1237;139302;-68
2022/09/24 18:40:37;;;;;;;15.10;9.30;;;;;;;14.73;55.29;98847.11;227383;1233;140450;-65
2022/09/24 18:45:40;;;;;;;14.10;9.20;;;;;;;14.61;55.50;98842.73;226082;1243;139654;-65
2022/09/24 18:50:43;;;;;;;17.10;10.30;;;;;;;14.50;55.59;98847.36;226173;1243;139210;-66
2022/09/24 18:55:46;;;;;;;15.90;10.20;;;;;;;14.39;55.99;98848.77;226491;1241;139674;-66
2022/09/24 19:00:50;;;;;;;18.30;9.80;;;;;;;14.29;56.04;98855.43;227428;1233;140228;-61
2022/09/24 19:05:55;;;;;;;18.10;9.90;;;;;;;14.22;56.34;98860.27;226365;1243;139516;-62
2022/09/24 19:11:13;;;;;;;18.20;9.50;;;;;;;14.14;56.51;98862.72;226394;1240;138859;-65
2022/09/24 19:16:18;;;;;;;18.40;10.30;;;;;;;14.06;56.74;98869.77;227498;1233;139633;-63
2022/09/24 19:21:24;;;;;;;17.60;9.80;;;;;;;14.00;57.00;98873.30;227421;1227;140771;-64
2022/09/24 19:26:30;;;;;;;18.40;9.60;;;;;;;13.93;57.26;98879.02;227345;1242;139554;-64
2022/09/24 19:31:36;;;;;;;19.80;10.30;;;;;;;13.89;57.36;98877.34;227207;1236;140815;-65
2022/09/24 19:36:42;;;;;;;18.90;11.20;;;;;;;13.90;57.56;98875.68;226237;1237;139652;-63
2022/09/24 19:41:51;;;;;;;17.00;10.10;;;;;;;13.88;57.87;98871.90;226396;1241;139317;-65
2022/09/24 19:46:54;;;;;;;16.90;10.00;;;;;;;13.86;57.91;98869.54;226523;1246;139498;-69
2022/09/24 19:51:57;;;;;;;19.90;11.20;;;;;;;13.83;58.05;98868.25;226202;1240;140031;-68
2022/09/24 19:57:00;;;;;;;17.20;10.50;;;;;;;13.77;58.07;98872.59;226049;1244;140471;-68
2022/09/24 20:02:03;;;;;;;21.20;11.10;;;;;;;13.70;58.26;98874.00;226212;1250;138992;-66
2022/09/24 20:07:07;;;;;;;18.30;11.30;;;;;;;13.63;58.52;98876.86;226462;1238;140560;-68
2022/09/24 20:12:15;;;;;;;15.50;10.70;;;;;;;13.55;58.71;98879.65;227303;1241;139934;-66
2022/09/24 20:17:18;;;;;;;19.90;10.60;;;;;;;13.48;58.91;98880.90;226289;1243;139061;-68
2022/09/24 20:22:21;;;;;;;19.80;11.50;;;;;;;13.41;59.02;98880.54;226211;1243;140257;-68
2022/09/24 20:32:47;;;;;;;19.20;10.30;;;;;;;13.29;59.47;98886.63;226262;1237;139784;-66
2022/09/24 20:37:50;;;;;;;18.10;10.80;;;;;;;13.27;59.54;98888.73;226177;1251;140905;-65
2022/09/24 20:42:53;;;;;;;16.20;9.80;;;;;;;13.26;59.66;98887.50;226147;1241;140809;-64
2022/09/24 20:47:56;;;;;;;26.10;12.20;;;;;;;13.25;59.77;98888.35;225959;1243;139398;-67
2022/09/24 20:52:59;;;;;;;19.70;11.50;;;;;;;13.20;59.83;98886.33;227384;1234;139338;-72
2022/09/24 20:58:02;;;;;;;21.90;13.10;;;;;;;13.12;59.92;98885.90;227389;1228;139945;-70
2022/09/24 21:03:04;;;;;;;23.70;12.90;;;;;;;13.03;60.02;98881.55;226207;1243;138963;-67
2022/09/24 21:08:36;;;;;;;22.80;12.70;;;;;;;12.96;59.89;98880.13;227182;1234;140027;-63
2022/09/24 21:13:42;;;;;;;24.70;12.90;;;;;;;12.86;59.97;98879.31;226079;1240;139382;-64
2022/09/24 21:18:46;;;;;;;24.40;12.30;;;;;;;12.75;60.04;98880.25;226178;1243;139908;-68
2022/09/24 21:23:52;;;;;;;20.20;12.50;;;;;;;12.65;59.99;98880.27;226307;1242;139355;-64
2022/09/24 21:28:59;;;;;;;23.30;12.50;;;;;;;12.54;60.49;98874.02;227273;1242;140139;-66
2022/09/24 21:34:05;;;;;;;19.90;11.80;;;;;;;12.48;60.36;98873.55;227207;1229;139234;-66
2022/09/24 21:39:21;;;;;;;22.70;13.10;;;;;;;12.48;60.58;98869.98;226113;1243;139900;-68
2022/09/24 21:44:25;;;;;;;19.60;13.20;;;;;;;12.48;60.48;98863.70;226246;1241;140306;-68
2022/09/24 21:49:28;;;;;;;22.40;14.10;;;;;;;12.47;60.40;98865.59;226379;1243;139259;-69
2022/09/24 21:54:34;;;;;;;25.20;15.50;;;;;;;12.41;60.54;98872.58;226384;1241;139254;-63
2022/09/24 22:05:00;;;;;;;25.30;14.90;;;;;;;12.27;60.51;98876.44;226199;1243;140570;-61
2022/09/24 22:10:04;;;;;;;26.70;15.10;;;;;;;12.19;60.37;98870.30;226277;1243;139217;-66
2022/09/24 22:15:07;;;;;;;22.60;14.50;;;;;;;12.09;60.44;98872.24;226316;1245;139139;-64
2022/09/24 22:20:10;;;;;;;24.00;14.30;;;;;;;12.00;60.77;98868.96;227383;1233;140019;-64
2022/09/24 22:25:13;;;;;;;22.80;14.90;;;;;;;11.88;60.73;98873.68;226526;1241;139561;-64
2022/09/24 22:30:16;;;;;;;26.00;14.90;;;;;;;11.78;60.70;98874.20;226570;1240;139727;-63
2022/09/24 22:40:45;;;;;;;21.80;15.00;;;;;;;11.74;61.09;98873.21;227286;1233;141583;-62
2022/09/24 22:45:48;;;;;;;21.60;15.00;;;;;;;11.75;60.82;98866.76;226150;1241;141043;-63
2022/09/24 22:50:51;;;;;;;24.30;14.90;;;;;;;11.76;61.39;98866.70;227448;1232;140168;-63
2022/09/24 22:56:04;;;;;;;20.90;14.90;;;;;;;11.75;61.12;98866.05;226394;1248;139746;-64
2022/09/24 23:01:20;;;;;;;22.20;14.80;;;;;;;11.71;61.28;98865.78;226230;1243;140242;-63
2022/09/24 23:06:23;;;;;;;23.00;14.60;;;;;;;11.68;61.31;98872.25;226470;1242;140163;-66
2022/09/24 23:11:32;;;;;;;22.80;15.30;;;;;;;11.64;61.40;98874.48;226428;1248;139345;-65
2022/09/24 23:16:36;;;;;;;26.80;15.90;;;;;;;11.57;61.43;98874.22;226235;1236;139619;-63
2022/09/24 23:21:40;;;;;;;22.50;15.70;;;;;;;11.50;61.58;98874.55;226229;1241;141482;-61
2022/09/24 23:26:43;;;;;;;24.50;15.10;;;;;;;11.47;61.51;98874.05;226268;1241;139020;-62
2022/09/24 23:31:47;;;;;;;26.30;15.70;;;;;;;11.41;61.53;98875.85;227320;1236;139193;-63
2022/09/24 23:36:49;;;;;;;25.40;16.30;;;;;;;11.43;61.87;98874.30;227425;1232;141053;-64
2022/09/24 23:41:52;;;;;;;25.00;16.00;;;;;;;11.42;61.54;98870.30;227518;1234;140466;-65
2022/09/24 23:46:56;;;;;;;22.10;15.40;;;;;;;11.38;61.63;98866.83;226156;1238;141200;-65
2022/09/24 23:51:59;;;;;;;28.70;16.10;;;;;;;11.34;61.58;98869.22;227232;1232;139801;-63
2022/09/24 23:57:05;;;;;;;24.80;16.20;;;;;;;11.31;61.69;98862.66;226182;1243;140185;-63
